Time;durP1;ratioP1;P1;durP2;ratioP2;P2;SDS_P1;SDS_P2;PMS_P1;PMS_P2;Temp;Humidity;BMP_temperature;BMP_pressure;BME280_temperature;BME280_humidity;BME280_pressure;Samples;Min_cycle;Max_cycle;Signal;HPM_P1;HPM_P2
2021/07/10 00:02:22;;;;;;;12.63;9.02;;;;;;;22.79;49.17;102059.28;5000156;28;20148;-85
2021/07/10 00:04:47;;;;;;;8.90;7.72;;;;;;;22.80;49.49;102061.91;4999695;28;20033;-84
2021/07/10 00:07:13;;;;;;;10.70;7.55;;;;;;;22.79;49.30;102057.53;5000148;28;20037;-85
2021/07/10 00:09:38;;;;;;;9.75;8.10;;;;;;;22.80;49.40;102053.19;4999903;28;20399;-81
2021/07/10 00:12:04;;;;;;;10.68;8.00;;;;;;;22.77;49.22;102056.69;5016183;28;20060;-81
2021/07/10 00:14:30;;;;;;;12.05;8.20;;;;;;;22.76;49.58;102054.97;4983606;28;20026;-84
2021/07/10 00:16:55;;;;;;;9.43;8.05;;;;;;;22.78;49.13;102060.19;4990001;28;20053;-82
2021/07/10 00:19:22;;;;;;;8.52;6.97;;;;;;;22.80;49.54;102061.06;4983544;28;20021;-82
2021/07/10 00:21:47;;;;;;;7.97;6.75;;;;;;;22.83;49.24;102062.75;4999475;28;20049;-82
2021/07/10 00:24:13;;;;;;;7.68;6.25;;;;;;;22.82;49.51;102055.75;4983076;28;20030;-80
2021/07/10 00:26:38;;;;;;;7.65;6.55;;;;;;;22.82;49.34;102059.28;4999571;28;20033;-80
2021/07/10 00:29:03;;;;;;;10.82;6.55;;;;;;;22.82;49.48;102054.03;4999649;28;20116;-81
2021/07/10 00:31:29;;;;;;;8.88;6.50;;;;;;;22.83;49.35;102053.13;4983071;28;20113;-80
2021/07/10 00:33:54;;;;;;;8.93;6.60;;;;;;;22.83;49.49;102053.13;4983249;28;20121;-80
2021/07/10 00:36:20;;;;;;;7.93;6.15;;;;;;;22.83;49.48;102044.38;4983215;28;20480;-84
2021/07/10 00:38:46;;;;;;;7.25;6.55;;;;;;;22.83;49.69;102044.38;5016128;28;20036;-84
2021/07/10 00:41:11;;;;;;;8.32;6.82;;;;;;;22.82;49.65;102043.53;4998705;28;20034;-84
2021/07/10 00:43:37;;;;;;;6.85;6.03;;;;;;;22.80;49.67;102035.66;5015759;28;20029;-84
2021/07/10 00:46:03;;;;;;;8.35;6.63;;;;;;;22.79;49.46;102036.53;4982951;28;20383;-85
2021/07/10 00:48:29;;;;;;;7.70;6.80;;;;;;;22.79;49.57;102038.31;4999208;28;20026;-85
2021/07/10 00:50:54;;;;;;;8.15;5.95;;;;;;;22.80;49.38;102038.28;4999269;28;20057;-84
2021/07/10 00:53:20;;;;;;;6.63;5.93;;;;;;;22.82;49.68;102040.00;4999117;28;20427;-80
2021/07/10 00:55:45;;;;;;;7.22;5.97;;;;;;;22.80;49.50;102038.28;4999912;28;20071;-79
2021/07/10 00:58:11;;;;;;;7.45;6.70;;;;;;;22.79;49.38;102036.53;4983084;28;20026;-80
2021/07/10 01:00:37;;;;;;;7.85;6.30;;;;;;;22.79;49.62;102031.28;4982813;28;20029;-81
2021/07/10 01:03:03;;;;;;;8.98;7.10;;;;;;;22.76;49.40;102020.84;5015326;28;20021;-80
2021/07/10 01:05:30;;;;;;;8.35;6.90;;;;;;;22.78;49.58;102018.22;5015310;28;20452;-80
2021/07/10 01:07:57;;;;;;;8.98;7.22;;;;;;;22.77;49.36;102014.69;4999097;28;20076;-79
2021/07/10 01:10:24;;;;;;;7.75;6.53;;;;;;;22.78;49.67;102020.84;5015408;28;20036;-85
2021/07/10 01:12:52;;;;;;;9.02;6.55;;;;;;;22.79;49.33;102014.69;5015516;28;20025;-85
2021/07/10 01:15:20;;;;;;;6.90;6.20;;;;;;;22.79;49.51;102014.69;5033066;28;20556;-80
2021/07/10 01:17:49;;;;;;;7.97;5.93;;;;;;;22.79;49.56;102017.31;5015182;28;20049;-82
2021/07/10 01:20:18;;;;;;;9.25;6.53;;;;;;;22.78;49.38;102019.06;4998870;28;20029;-80
2021/07/10 01:22:45;;;;;;;8.25;6.20;;;;;;;22.78;49.39;102005.94;5015438;28;20022;-85
2021/07/10 01:25:15;;;;;;;8.80;6.40;;;;;;;22.78;49.51;102008.56;4999025;28;20033;-85
2021/07/10 01:27:41;;;;;;;7.97;6.22;;;;;;;22.78;49.75;101999.84;5033060;28;20057;-84
2021/07/10 01:30:15;;;;;;;7.22;6.28;;;;;;;22.78;49.67;102012.97;4999069;28;20057;-85
2021/07/10 01:32:42;;;;;;;7.45;6.47;;;;;;;22.77;49.85;102017.31;5015124;28;20022;-85
2021/07/10 01:35:09;;;;;;;7.30;6.40;;;;;;;22.78;49.83;102007.72;4998999;28;20033;-83
2021/07/10 01:37:36;;;;;;;7.15;6.20;;;;;;;22.78;49.81;102005.09;4999306;28;20555;-85
2021/07/10 01:40:05;;;;;;;7.18;6.13;;;;;;;22.77;49.80;102001.56;4998921;28;20099;-85
2021/07/10 01:42:31;;;;;;;7.38;6.43;;;;;;;22.78;49.32;102007.72;5015107;28;20057;-85
2021/07/10 01:44:57;;;;;;;8.00;6.30;;;;;;;22.77;49.86;101993.69;4998700;28;20386;-84
2021/07/10 01:47:22;;;;;;;7.55;6.05;;;;;;;22.75;49.79;101992.00;5015244;28;20036;-84
2021/07/10 01:49:51;;;;;;;9.35;7.40;;;;;;;22.74;50.05;101995.50;5015096;28;20040;-84
2021/07/10 01:52:16;;;;;;;10.73;7.82;;;;;;;22.73;49.66;101986.78;4985676;28;20030;-85
2021/07/10 01:54:41;;;;;;;9.55;7.78;;;;;;;22.73;49.66;101986.78;5002394;28;20037;-85
2021/07/10 01:57:08;;;;;;;9.57;7.00;;;;;;;22.73;49.99;101981.53;5002281;28;20033;-86
2021/07/10 01:59:34;;;;;;;9.82;7.95;;;;;;;22.73;49.85;101975.41;5002679;28;20026;-84
2021/07/10 02:01:59;;;;;;;10.23;8.02;;;;;;;22.72;49.60;101969.28;5002401;28;20040;-85
2021/07/10 02:04:25;;;;;;;10.75;8.15;;;;;;;22.72;49.78;101968.44;5018512;28;20030;-85
2021/07/10 02:06:51;;;;;;;10.25;7.85;;;;;;;22.71;49.89;101970.19;4986388;28;20025;-84
2021/07/10 02:09:17;;;;;;;9.45;7.43;;;;;;;22.72;49.83;101965.81;5002872;28;20498;-85
2021/07/10 02:11:50;;;;;;;9.32;7.60;;;;;;;22.71;49.83;101964.03;5018060;28;20430;-86
2021/07/10 02:14:17;;;;;;;8.50;7.60;;;;;;;22.71;49.50;101967.56;5018115;28;20028;-86
2021/07/10 02:16:44;;;;;;;9.55;8.50;;;;;;;22.70;49.49;101968.44;5018779;28;20052;-86
2021/07/10 02:19:09;;;;;;;10.35;8.15;;;;;;;22.69;49.65;101968.44;5018166;28;20048;-86
2021/07/10 02:21:35;;;;;;;10.27;8.00;;;;;;;22.70;49.80;101965.81;4985580;28;20483;-85
2021/07/10 02:24:00;;;;;;;11.02;7.80;;;;;;;22.68;49.89;101964.97;5001563;28;20471;-86
2021/07/10 02:26:26;;;;;;;9.75;7.63;;;;;;;22.68;49.63;101957.09;5001644;28;20095;-86
2021/07/10 02:28:51;;;;;;;10.60;7.60;;;;;;;22.69;49.59;101960.56;5001718;28;20032;-86
2021/07/10 02:31:17;;;;;;;11.60;8.10;;;;;;;22.69;49.48;101952.69;5001538;28;20120;-86
2021/07/10 02:33:42;;;;;;;9.48;7.32;;;;;;;22.71;49.64;101954.44;5017898;28;20017;-86
2021/07/10 02:36:08;;;;;;;8.35;6.97;;;;;;;22.71;49.68;101957.06;5001722;28;20032;-86
2021/07/10 02:38:33;;;;;;;8.43;7.53;;;;;;;22.70;49.82;101955.31;4985190;28;20124;-86
2021/07/10 02:40:59;;;;;;;9.02;7.43;;;;;;;22.69;49.71;101947.44;5017802;28;20079;-86
2021/07/10 02:43:24;;;;;;;9.15;7.03;;;;;;;22.69;49.77;101950.97;4985066;28;20026;-85
2021/07/10 02:45:49;;;;;;;8.15;6.35;;;;;;;22.72;49.53;101944.81;5001257;28;20033;-86
2021/07/10 02:48:15;;;;;;;8.80;6.65;;;;;;;22.71;49.63;101941.31;5001341;28;20033;-85
2021/07/10 02:50:41;;;;;;;8.07;6.40;;;;;;;22.71;49.91;101938.69;5001094;28;20423;-85
2021/07/10 02:53:07;;;;;;;6.70;5.88;;;;;;;22.71;49.79;101933.44;5001266;28;20529;-85
2021/07/10 02:55:34;;;;;;;8.70;6.40;;;;;;;22.72;49.68;101932.56;5035751;28;20120;-84
2021/07/10 02:57:59;;;;;;;7.35;6.30;;;;;;;22.71;49.91;101933.44;5001256;28;20025;-85
2021/07/10 03:00:27;;;;;;;7.35;6.10;;;;;;;22.72;49.68;101934.31;5017451;28;20432;-85
2021/07/10 03:02:53;;;;;;;7.93;6.40;;;;;;;22.70;49.77;101929.06;5016409;28;20136;-85
2021/07/10 03:05:18;;;;;;;7.45;6.32;;;;;;;22.70;49.99;101922.97;5017506;28;20112;-85
2021/07/10 03:07:44;;;;;;;7.20;6.30;;;;;;;22.70;49.77;101925.59;4984719;28;20142;-85
2021/07/10 03:10:13;;;;;;;7.38;6.10;;;;;;;22.69;49.65;101916.88;5000901;28;20036;-85
2021/07/10 03:12:38;;;;;;;7.70;6.57;;;;;;;22.69;49.65;101910.72;5001125;28;20056;-85
2021/07/10 03:15:05;;;;;;;7.65;6.20;;;;;;;22.69;49.78;101910.72;5000984;28;20537;-85
2021/07/10 03:17:30;;;;;;;10.55;6.80;;;;;;;22.68;49.66;101907.25;4984520;28;20525;-85
2021/07/10 03:19:55;;;;;;;8.05;6.32;;;;;;;22.69;49.44;101902.84;4999908;28;20033;-85
2021/07/10 03:22:21;;;;;;;7.57;6.20;;;;;;;22.69;49.62;101902.84;5016087;28;20196;-85
2021/07/10 03:24:46;;;;;;;8.18;6.72;;;;;;;22.69;49.71;101905.47;4983542;28;20029;-85
2021/07/10 03:27:13;;;;;;;7.35;6.47;;;;;;;22.69;49.69;101906.38;4999778;28;20041;-86
2021/07/10 03:29:38;;;;;;;8.95;6.85;;;;;;;22.69;49.94;101911.63;4999777;28;20438;-86
2021/07/10 03:32:04;;;;;;;7.25;6.35;;;;;;;22.69;49.82;101909.00;5016088;28;20083;-84
2021/07/10 03:34:30;;;;;;;7.45;6.40;;;;;;;22.69;49.66;101898.50;4999572;28;20087;-85
2021/07/10 03:36:55;;;;;;;7.97;7.00;;;;;;;22.69;49.69;101903.75;4983508;28;20075;-85
2021/07/10 03:39:21;;;;;;;8.02;6.30;;;;;;;22.68;49.67;101896.75;4983417;28;20418;-85
2021/07/10 03:41:47;;;;;;;8.38;6.78;;;;;;;22.69;49.94;101905.47;4999714;28;20029;-85
2021/07/10 03:44:12;;;;;;;10.30;7.10;;;;;;;22.69;49.52;101909.00;5016036;28;20035;-86
2021/07/10 03:46:38;;;;;;;8.35;7.13;;;;;;;22.68;49.65;101907.25;4999686;28;20038;-86
2021/07/10 03:49:03;;;;;;;9.48;6.75;;;;;;;22.69;49.91;101905.47;4999857;28;20388;-85
2021/07/10 03:51:28;;;;;;;9.35;7.25;;;;;;;22.68;49.84;101904.63;5034071;28;20068;-85
2021/07/10 03:53:56;;;;;;;8.30;6.68;;;;;;;22.68;49.52;101899.38;5000120;28;20391;-85
2021/07/10 03:56:22;;;;;;;9.18;7.43;;;;;;;22.67;49.63;101900.28;5005522;28;20076;-80
2021/07/10 03:58:47;;;;;;;9.57;7.32;;;;;;;22.68;49.86;101890.63;5012064;28;20053;-82
2021/07/10 04:01:13;;;;;;;8.10;6.82;;;;;;;22.68;49.75;101899.38;5003168;28;20058;-81
2021/07/10 04:03:38;;;;;;;8.55;7.28;;;;;;;22.68;49.96;101902.00;5016208;28;20037;-81
2021/07/10 04:06:04;;;;;;;8.65;6.82;;;;;;;22.68;49.82;101898.50;5015344;28;20025;-80
2021/07/10 04:08:29;;;;;;;8.88;6.47;;;;;;;22.69;49.81;101900.22;5015441;28;20514;-80
2021/07/10 04:10:55;;;;;;;8.32;6.80;;;;;;;22.70;49.81;101899.34;4999020;28;20065;-81
2021/07/10 04:13:20;;;;;;;10.55;7.50;;;;;;;22.69;49.37;101888.00;4982109;28;20067;-80
2021/07/10 04:15:46;;;;;;;8.23;6.75;;;;;;;22.69;49.73;101895.88;4976816;28;1093136;-81
2021/07/10 04:18:11;;;;;;;9.90;7.60;;;;;;;22.67;49.86;101892.41;4999678;28;20041;-81
2021/07/10 04:20:37;;;;;;;9.18;7.65;;;;;;;22.66;49.51;101893.28;5015765;28;20388;-81
2021/07/10 04:23:02;;;;;;;9.05;7.50;;;;;;;22.65;49.79;101890.69;4999800;28;20026;-82
2021/07/10 04:25:28;;;;;;;11.70;8.32;;;;;;;22.65;49.51;101891.56;5016214;28;20021;-81
2021/07/10 04:27:53;;;;;;;9.15;7.85;;;;;;;22.65;49.74;101896.78;4983367;28;20071;-81
2021/07/10 04:30:20;;;;;;;11.15;7.88;;;;;;;22.65;49.58;101894.19;4999803;28;20388;-81
2021/07/10 04:32:46;;;;;;;9.80;7.53;;;;;;;22.67;49.74;101892.41;4983664;28;20045;-82
2021/07/10 04:35:12;;;;;;;9.57;7.68;;;;;;;22.66;49.75;101893.28;5016082;28;20056;-81
2021/07/10 04:37:37;;;;;;;8.63;7.63;;;;;;;22.66;49.79;101890.66;5015924;28;20444;-80
2021/07/10 04:40:05;;;;;;;10.02;7.57;;;;;;;22.66;49.87;101890.66;4999819;28;20401;-81
2021/07/10 04:42:31;;;;;;;10.02;7.70;;;;;;;22.67;49.51;101889.78;4999830;28;20056;-80
2021/07/10 04:44:59;;;;;;;7.25;6.55;;;;;;;22.67;49.61;101889.78;5015786;28;20523;-82
2021/07/10 04:47:24;;;;;;;10.02;6.30;;;;;;;22.68;49.48;101888.00;4983827;28;20060;-81
2021/07/10 04:49:50;;;;;;;8.23;6.78;;;;;;;22.67;49.70;101892.41;4999212;28;20056;-82
2021/07/10 04:52:15;;;;;;;8.02;6.30;;;;;;;22.69;49.63;101892.34;4982963;28;20082;-81
2021/07/10 04:54:41;;;;;;;6.85;6.05;;;;;;;22.67;49.67;101892.41;4999330;28;20026;-81
2021/07/10 04:57:07;;;;;;;9.27;6.47;;;;;;;22.69;49.81;101892.34;4999377;28;20072;-80
2021/07/10 04:59:33;;;;;;;7.53;6.55;;;;;;;22.69;49.62;101893.25;5015689;28;20083;-82
2021/07/10 05:01:58;;;;;;;8.30;6.10;;;;;;;22.70;49.71;101888.84;5033325;28;20075;-83
2021/07/10 05:04:23;;;;;;;7.57;6.70;;;;;;;22.68;49.66;101883.63;5015467;28;20040;-82
2021/07/10 05:06:50;;;;;;;9.25;6.43;;;;;;;22.69;49.56;101887.09;4998886;28;20025;-81
2021/07/10 05:09:15;;;;;;;8.25;6.20;;;;;;;22.68;49.85;101886.25;4999108;28;20025;-80
2021/07/10 05:11:41;;;;;;;7.85;6.10;;;;;;;22.69;49.65;101887.09;5015312;28;20373;-80
2021/07/10 05:14:06;;;;;;;8.73;7.22;;;;;;;22.68;49.53;101883.63;4983043;28;20029;-79
2021/07/10 05:16:32;;;;;;;7.80;6.65;;;;;;;22.67;49.75;101878.38;4982948;28;20053;-81
2021/07/10 05:18:58;;;;;;;7.55;6.70;;;;;;;22.67;49.76;101878.38;4982938;28;20124;-83
2021/07/10 05:21:23;;;;;;;9.15;7.07;;;;;;;22.67;49.81;101881.91;4999357;28;20427;-81
2021/07/10 05:23:50;;;;;;;7.18;6.47;;;;;;;22.67;49.76;101878.38;5015308;28;20535;-83
2021/07/10 05:26:15;;;;;;;8.10;6.40;;;;;;;22.68;49.39;101874.91;4999543;28;20120;-80
2021/07/10 05:28:41;;;;;;;7.75;6.40;;;;;;;22.67;49.46;101874.03;5018998;28;20459;-82
2021/07/10 05:31:06;;;;;;;7.75;6.57;;;;;;;22.67;49.50;101874.03;5002676;28;20025;-81
2021/07/10 05:33:32;;;;;;;6.95;5.93;;;;;;;22.68;49.75;101867.88;5002547;28;20471;-82
2021/07/10 05:35:57;;;;;;;6.40;5.80;;;;;;;22.69;49.73;101874.88;5019324;28;20036;-80
2021/07/10 05:38:23;;;;;;;7.10;6.15;;;;;;;22.68;49.56;101873.13;5019209;28;20053;-81
2021/07/10 05:40:48;;;;;;;8.77;6.43;;;;;;;22.69;49.38;101874.00;5018730;28;20037;-81
2021/07/10 05:43:14;;;;;;;8.10;6.25;;;;;;;22.69;49.35;101874.88;5002262;28;20029;-81
2021/07/10 05:45:39;;;;;;;6.18;5.57;;;;;;;22.70;49.40;101875.75;5002350;28;20029;-82
2021/07/10 05:48:06;;;;;;;6.93;6.22;;;;;;;22.70;49.19;101875.75;5002348;28;20468;-81
2021/07/10 05:50:32;;;;;;;6.72;6.05;;;;;;;22.70;49.68;101873.97;5002458;28;20123;-82
2021/07/10 05:52:57;;;;;;;7.78;5.80;;;;;;;22.71;49.61;101875.72;5036325;28;20495;-80
2021/07/10 05:55:23;;;;;;;8.98;7.28;;;;;;;22.70;49.23;101873.97;5018344;28;20361;-80
2021/07/10 05:57:48;;;;;;;7.63;6.78;;;;;;;22.70;49.34;101873.13;5002382;28;20116;-80
2021/07/10 06:00:14;;;;;;;6.35;5.75;;;;;;;22.71;49.32;101867.84;5018503;28;20471;-85
2021/07/10 06:02:40;;;;;;;8.32;6.82;;;;;;;22.70;49.61;101866.09;5002226;28;20030;-85
2021/07/10 06:05:07;;;;;;;6.70;6.10;;;;;;;22.72;49.42;101866.94;5002087;28;20032;-87
2021/07/10 06:07:33;;;;;;;7.57;6.53;;;;;;;22.75;49.23;101869.50;5001232;28;20056;-87
2021/07/10 06:09:59;;;;;;;7.07;6.20;;;;;;;22.76;49.19;101865.16;5018372;28;20532;-85
2021/07/10 06:12:24;;;;;;;7.18;6.47;;;;;;;22.74;49.53;101867.78;5002343;28;20128;-87
2021/07/10 06:14:50;;;;;;;7.95;6.22;;;;;;;22.73;49.70;101870.44;5004721;28;20026;-85
2021/07/10 06:17:15;;;;;;;9.07;8.00;;;;;;;22.68;50.21;101872.28;5043353;28;20049;-88
2021/07/10 06:19:41;;;;;;;15.57;11.57;;;;;;;22.62;49.94;101877.59;5004615;28;20480;-88
2021/07/10 06:22:06;;;;;;;14.40;12.13;;;;;;;22.71;49.42;101872.22;4988437;28;20033;-89
2021/07/10 06:24:32;;;;;;;16.95;15.15;;;;;;;22.76;48.86;101871.25;4985832;28;20391;-89
2021/07/10 06:26:57;;;;;;;19.60;15.35;;;;;;;22.80;48.82;101872.09;4986090;28;20033;-88
2021/07/10 06:29:23;;;;;;;19.02;16.98;;;;;;;23.00;48.38;101875.31;5002017;28;20063;-81
2021/07/10 06:31:49;;;;;;;21.85;17.55;;;;;;;23.15;47.91;101875.97;5018117;28;20059;-87
2021/07/10 06:34:14;;;;;;;20.77;17.55;;;;;;;23.02;48.14;101877.91;5001664;28;20029;-90
2021/07/10 06:36:42;;;;;;;23.05;17.25;;;;;;;22.88;48.38;101878.06;5018185;28;20029;-81
2021/07/10 06:39:07;;;;;;;26.83;19.55;;;;;;;22.85;48.46;101877.28;5018067;28;20033;-87
2021/07/10 06:41:33;;;;;;;27.55;23.35;;;;;;;22.85;48.77;101878.13;4985494;28;20092;-89
2021/07/10 06:43:58;;;;;;;36.97;27.48;;;;;;;22.89;48.46;101871.94;5001696;28;20037;-88
2021/07/10 06:46:24;;;;;;;29.70;26.50;;;;;;;22.99;47.89;101878.81;5001545;28;20033;-89
2021/07/10 06:48:49;;;;;;;29.42;24.77;;;;;;;23.15;47.80;101874.19;5017876;28;20493;-89
2021/07/10 06:51:16;;;;;;;28.98;23.90;;;;;;;23.23;47.34;101879.28;5017729;28;20417;-87
2021/07/10 06:53:42;;;;;;;27.25;23.88;;;;;;;23.14;47.54;101876.84;5001974;28;20040;-87
2021/07/10 06:56:08;;;;;;;28.25;22.15;;;;;;;23.20;47.15;101882.00;4986187;28;20037;-86
2021/07/10 06:58:34;;;;;;;24.58;21.77;;;;;;;23.23;47.00;101875.81;5018024;28;20033;-89
2021/07/10 07:00:59;;;;;;;24.10;21.33;;;;;;;23.04;47.54;101881.38;5018168;28;20117;-87
2021/07/10 07:03:25;;;;;;;24.40;21.90;;;;;;;22.98;47.60;101877.03;4985643;28;20116;-87
2021/07/10 07:05:50;;;;;;;25.13;22.42;;;;;;;23.14;47.45;101879.47;5017677;28;20067;-86
2021/07/10 07:08:16;;;;;;;25.20;22.45;;;;;;;23.37;46.92;101879.09;4984809;28;20487;-86
2021/07/10 07:10:41;;;;;;;26.83;22.38;;;;;;;23.38;46.74;101870.28;5018097;28;20039;-87
2021/07/10 07:13:07;;;;;;;24.45;21.25;;;;;;;23.23;47.21;101868.78;4984847;28;20438;-85
2021/07/10 07:15:32;;;;;;;25.58;21.63;;;;;;;23.14;47.70;101877.69;4984736;28;20037;-87
2021/07/10 07:17:57;;;;;;;24.58;21.90;;;;;;;22.98;47.92;101871.81;5017307;28;20140;-85
2021/07/10 07:20:23;;;;;;;24.95;22.20;;;;;;;23.01;47.97;101876.16;5017627;28;20530;-85
2021/07/10 07:22:49;;;;;;;25.15;22.45;;;;;;;24.39;44.47;101870.13;5001189;28;20467;-86
2021/07/10 07:25:17;;;;;;;25.15;21.25;;;;;;;24.76;43.28;101872.81;5001404;28;20041;-85
2021/07/10 07:27:42;;;;;;;24.23;21.48;;;;;;;23.89;45.62;101872.91;5002903;28;20026;-86
2021/07/10 07:30:09;;;;;;;22.42;19.98;;;;;;;23.69;45.93;101865.38;5033829;28;20048;-89
2021/07/10 07:32:35;;;;;;;24.60;20.95;;;;;;;23.24;47.53;101867.06;5022268;28;20044;-87
2021/07/10 07:35:02;;;;;;;21.75;19.55;;;;;;;23.11;47.65;101867.25;5021311;28;20532;-85
2021/07/10 07:37:28;;;;;;;20.75;18.58;;;;;;;23.05;47.91;101858.63;5018752;28;20046;-85
2021/07/10 07:39:53;;;;;;;23.38;18.50;;;;;;;23.02;47.67;101853.41;5001111;28;20068;-86
2021/07/10 07:42:19;;;;;;;23.08;18.10;;;;;;;23.00;47.78;101858.69;5000941;28;20488;-87
2021/07/10 07:44:45;;;;;;;22.98;19.13;;;;;;;23.07;47.51;101865.56;5016804;28;20044;-81
2021/07/10 07:47:13;;;;;;;22.83;18.35;;;;;;;23.03;47.67;101861.25;5016445;28;20026;-79
2021/07/10 07:49:38;;;;;;;24.00;17.98;;;;;;;22.89;47.92;101865.84;5033730;28;20022;-78
2021/07/10 07:52:08;;;;;;;21.27;18.02;;;;;;;22.80;48.15;101859.84;5016589;28;20357;-83
2021/07/10 07:54:34;;;;;;;21.75;18.10;;;;;;;22.76;48.22;101854.66;5000746;28;20068;-82
2021/07/10 07:57:00;;;;;;;20.23;18.02;;;;;;;22.76;48.06;101858.16;5016584;28;20041;-80
2021/07/10 07:59:26;;;;;;;23.35;18.00;;;;;;;22.80;47.91;101864.22;5034039;28;20025;-83
2021/07/10 08:01:52;;;;;;;23.80;18.15;;;;;;;22.80;48.15;101857.22;5016159;28;20120;-82
2021/07/10 08:04:18;;;;;;;22.90;18.50;;;;;;;22.80;47.86;101857.22;5016241;28;20113;-80
2021/07/10 08:06:43;;;;;;;20.20;17.38;;;;;;;23.19;47.44;101862.75;5016109;28;20017;-79
2021/07/10 08:09:10;;;;;;;19.92;17.05;;;;;;;24.19;45.00;101849.47;4999716;28;20041;-79
2021/07/10 08:11:35;;;;;;;20.92;17.60;;;;;;;24.57;43.83;101846.03;5016050;28;20025;-82
2021/07/10 08:14:01;;;;;;;20.70;16.55;;;;;;;24.59;43.93;101843.38;5033761;28;20032;-80
2021/07/10 08:16:26;;;;;;;19.45;15.10;;;;;;;24.79;43.04;101833.22;5015948;28;20061;-79
2021/07/10 08:18:52;;;;;;;16.65;14.65;;;;;;;24.86;42.97;101836.59;5032639;28;20048;-79
2021/07/10 08:21:19;;;;;;;17.75;14.25;;;;;;;24.90;42.98;101829.47;4999781;28;20063;-80
2021/07/10 08:23:44;;;;;;;17.48;13.18;;;;;;;24.83;42.75;101824.38;5015685;28;20120;-80
2021/07/10 08:26:10;;;;;;;15.95;12.30;;;;;;;24.94;42.55;101825.88;5015711;28;20028;-80
2021/07/10 08:28:36;;;;;;;14.52;12.45;;;;;;;25.08;42.19;101821.09;5033456;28;20029;-81
2021/07/10 08:31:02;;;;;;;13.90;12.07;;;;;;;24.83;43.03;101831.41;5015741;28;20056;-84
2021/07/10 08:33:28;;;;;;;14.82;11.32;;;;;;;24.30;44.16;101823.84;5000059;28;20025;-83
2021/07/10 08:35:54;;;;;;;13.73;11.60;;;;;;;24.00;44.62;101823.59;5033439;28;20040;-84
2021/07/10 08:38:19;;;;;;;16.25;11.27;;;;;;;24.01;44.73;101820.03;5015962;28;20480;-82
2021/07/10 08:40:45;;;;;;;12.77;11.15;;;;;;;24.02;44.60;101820.94;5016069;28;20040;-82
2021/07/10 08:43:11;;;;;;;13.57;10.80;;;;;;;23.81;45.25;101814.34;4999473;28;20029;-80
2021/07/10 08:45:37;;;;;;;17.17;9.75;;;;;;;23.90;45.80;101821.19;5000312;28;20383;-88
2021/07/10 08:48:04;;;;;;;22.38;10.10;;;;;;;24.23;45.01;101817.81;4999427;28;20032;-82
2021/07/10 08:50:30;;;;;;;28.98;11.50;;;;;;;24.16;45.20;101820.63;4999504;28;20065;-82
2021/07/10 08:52:56;;;;;;;14.32;10.27;;;;;;;23.85;45.29;101821.28;5033760;28;20051;-83
2021/07/10 08:55:22;;;;;;;15.20;10.80;;;;;;;23.77;45.93;101812.66;5015791;28;20427;-86
2021/07/10 08:57:48;;;;;;;17.08;10.00;;;;;;;23.65;45.95;101805.88;5000216;28;20114;-85
2021/07/10 09:00:38;;;;;;;12.30;9.45;;;;;;;23.65;46.04;101808.50;5033328;28;20017;-87
2021/07/10 09:03:05;;;;;;;16.55;10.05;;;;;;;23.60;46.02;101813.84;5019509;28;20021;-90
2021/07/10 09:05:30;;;;;;;15.93;10.07;;;;;;;23.45;46.51;101805.38;5003538;28;20479;-89
2021/07/10 09:08:16;;;;;;;14.15;10.13;;;;;;;23.41;46.42;101808.06;5003173;28;20040;-87
2021/07/10 09:10:55;;;;;;;15.13;9.88;;;;;;;23.31;46.86;101805.66;5019564;28;20112;-87
2021/07/10 09:13:30;;;;;;;16.17;10.60;;;;;;;23.23;47.29;101807.53;5019589;28;20112;-89
2021/07/10 09:16:00;;;;;;;13.98;10.45;;;;;;;23.18;46.91;101805.00;5037372;28;20021;-87
2021/07/10 09:18:46;;;;;;;13.15;10.32;;;;;;;23.12;47.27;101805.97;5019648;28;20078;-88
2021/07/10 09:21:32;;;;;;;14.85;10.65;;;;;;;23.15;47.02;101798.03;5037444;28;20021;-88
2021/07/10 09:23:57;;;;;;;15.43;11.40;;;;;;;23.14;47.16;101811.19;5019557;28;20071;-88
2021/07/10 09:26:28;;;;;;;13.77;10.85;;;;;;;23.16;46.95;101807.63;5020626;28;20034;-89
2021/07/10 09:28:56;;;;;;;17.40;10.90;;;;;;;23.22;47.14;101805.81;5019278;28;20124;-79
2021/07/10 09:31:27;;;;;;;14.60;10.80;;;;;;;23.20;47.00;101801.44;5019290;28;20079;-87
2021/07/10 09:34:02;;;;;;;14.43;10.43;;;;;;;23.25;46.87;101796.09;5037001;28;20025;-89
2021/07/10 09:36:27;;;;;;;16.58;11.05;;;;;;;23.27;46.75;101796.09;5019736;28;20032;-86
2021/07/10 09:38:53;;;;;;;13.95;10.65;;;;;;;23.26;47.08;101797.84;5020542;28;20029;-88
2021/07/10 09:41:31;;;;;;;13.90;10.90;;;;;;;23.21;47.12;101794.44;5018984;28;20044;-86
2021/07/10 09:44:08;;;;;;;16.85;11.55;;;;;;;23.33;46.88;101786.34;5018881;28;20021;-85
2021/07/10 09:46:34;;;;;;;14.70;12.27;;;;;;;23.44;46.82;101786.13;5036675;28;20022;-89
2021/07/10 09:49:19;;;;;;;15.13;11.95;;;;;;;23.45;46.71;101787.84;5002482;28;20033;-87
2021/07/10 09:51:46;;;;;;;15.52;12.38;;;;;;;23.44;46.96;101780.88;5018656;28;20024;-86
2021/07/10 09:54:12;;;;;;;16.38;11.60;;;;;;;23.45;46.94;101779.09;5002457;28;20037;-78
2021/07/10 09:56:58;;;;;;;13.95;11.60;;;;;;;23.47;47.08;101772.94;5002705;28;20029;-88
2021/07/10 09:59:24;;;;;;;15.38;11.30;;;;;;;23.42;47.16;101774.78;5036489;28;20022;-86
2021/07/10 10:01:50;;;;;;;18.50;11.80;;;;;;;23.34;47.18;101774.94;5036659;28;20088;-86
2021/07/10 10:04:27;;;;;;;15.30;11.63;;;;;;;23.33;47.34;101774.97;5018440;28;20072;-86
2021/07/10 10:06:58;;;;;;;15.23;11.85;;;;;;;23.28;47.32;101775.06;5001986;28;20032;-86
2021/07/10 10:09:29;;;;;;;14.30;11.10;;;;;;;23.25;47.55;101780.34;5036182;28;20068;-87
2021/07/10 10:11:57;;;;;;;14.88;10.98;;;;;;;23.25;47.65;101780.34;5017830;28;20071;-86
2021/07/10 10:14:24;;;;;;;14.98;10.95;;;;;;;23.23;47.61;101776.88;5035023;28;20018;-83
2021/07/10 10:16:50;;;;;;;12.32;10.02;;;;;;;23.28;47.51;101775.06;5018434;28;20153;-85
2021/07/10 10:19:21;;;;;;;13.55;9.90;;;;;;;23.31;47.26;101768.88;4986850;28;20048;-85
2021/07/10 10:21:51;;;;;;;12.70;9.82;;;;;;;23.31;47.65;101768.88;5018689;28;20355;-85
2021/07/10 10:24:18;;;;;;;12.55;10.43;;;;;;;23.38;47.22;101767.84;5018107;28;20021;-84
2021/07/10 10:26:45;;;;;;;11.25;9.70;;;;;;;23.42;47.15;101764.28;5035916;28;20060;-84
2021/07/10 10:29:12;;;;;;;11.52;9.65;;;;;;;23.45;47.08;101764.22;5001839;28;20033;-85
2021/07/10 10:31:39;;;;;;;12.57;9.65;;;;;;;23.50;46.89;101762.38;5017967;28;20029;-83
2021/07/10 10:34:10;;;;;;;12.55;10.25;;;;;;;23.50;46.44;101756.25;5001803;28;20025;-84
2021/07/10 10:36:38;;;;;;;13.00;10.52;;;;;;;23.41;46.48;101758.16;4985639;28;20025;-83
2021/07/10 10:39:10;;;;;;;12.70;9.85;;;;;;;23.38;46.87;101754.72;5017586;28;20539;-82
2021/07/10 10:41:44;;;;;;;11.63;8.90;;;;;;;23.39;47.07;101753.84;5017720;28;20029;-82
2021/07/10 10:44:10;;;;;;;10.77;9.00;;;;;;;23.40;46.94;101750.31;5017457;28;20033;-81
2021/07/10 10:46:44;;;;;;;10.07;8.50;;;;;;;23.35;46.87;101750.41;5001370;28;20029;-82
2021/07/10 10:49:43;;;;;;;10.65;8.82;;;;;;;23.40;46.70;101753.78;5017633;28;20086;-82
2021/07/10 10:52:54;;;;;;;11.77;8.50;;;;;;;23.35;46.95;101752.16;5017615;28;20083;-80
2021/07/10 10:55:28;;;;;;;11.07;8.20;;;;;;;23.28;47.09;101753.16;5031144;28;20025;-81
2021/07/10 10:57:56;;;;;;;12.65;8.90;;;;;;;23.23;46.77;101745.38;5017998;28;20030;-80
2021/07/10 11:00:24;;;;;;;11.30;8.82;;;;;;;23.17;46.96;101735.88;5001525;28;20121;-80
2021/07/10 11:02:49;;;;;;;9.50;8.57;;;;;;;23.15;45.88;101742.06;5019568;28;20069;-81
2021/07/10 11:05:24;;;;;;;11.20;8.73;;;;;;;23.16;46.76;101747.25;5026939;28;20025;-81
2021/07/10 11:07:49;;;;;;;12.65;8.30;;;;;;;23.19;46.51;101741.06;5009802;28;20033;-81
2021/07/10 11:10:16;;;;;;;11.75;8.20;;;;;;;23.24;46.32;101736.63;5005357;28;20480;-82
2021/07/10 11:12:57;;;;;;;9.95;8.00;;;;;;;23.29;46.27;101742.63;5019647;28;20018;-80
2021/07/10 11:15:25;;;;;;;13.23;8.65;;;;;;;23.35;46.06;101739.91;5017892;28;20025;-80
2021/07/10 11:17:52;;;;;;;10.10;7.78;;;;;;;23.37;46.19;101742.50;5018597;28;20407;-82
2021/07/10 11:20:43;;;;;;;10.13;8.00;;;;;;;23.38;46.26;101737.19;5018378;28;20064;-82